Weather



ICAO METAR
KAEX KAEX 020853Z 00000KT 10SM CLR 21/19 A3004 RMK AO2 SLP176 T02060189 56012
KAUS KAUS 020853Z 00000KT 10SM SCT012 SCT200 21/19 A3005 RMK AO2 SLP166 T02060194 56011 $
KBPT KBPT 020853Z AUTO 07004KT 10SM CLR 24/20 A3003 RMK AO2 SLP168 T02390200 56012 $
KBTR KBTR 020853Z AUTO 00000KT 10SM CLR 23/19 A3005 RMK AO2 SLP173 T02330189 55008
KCLL KCLL 020853Z AUTO 12003KT 10SM CLR 23/21 A3005 RMK AO2 SLP171 T02330211 56008
KCRP KCRP 020851Z 01003KT 10SM FEW015 FEW040 FEW250 23/22 A2999 RMK AO2 SLP155 T02280222 56014
KCXO KCXO 020853Z AUTO 00000KT 5SM BR CLR 21/20 A3005 RMK AO2 SLP173 T02110200 56012
KDLF KDLF 020856Z AUTO 10008KT 10SM BKN015 BKN032 OVC049 22/20 A3004 RMK AO2 CIG 015V029 BKN015 V SCT SLP162 T02160200 57009 $
KDWH KDWH 020853Z AUTO 00000KT 7SM CLR 21/19 A3004 RMK AO2 SLP169 T02110194 56012
KEFD KEFD 020850Z 04003KT 10SM FEW030 BKN250 23/22 A3002
KGLS KGLS 020852Z AUTO 10005KT 10SM CLR 27/23 A3003 RMK AO2 SLP168 T02670233 56010
KGPT KGPT 020853Z 00000KT 10SM CLR 23/19 A3005 RMK AO2 SLP173 T02280194 56007
KHOU KHOU 020853Z 35003KT 10SM FEW030 SCT150 BKN250 23/22 A3003 RMK AO2 SLP172 T02330217 57010
KHRL KHRL 020852Z AUTO 36003KT 10SM CLR 22/22 A2997 RMK AO2 SLP148 T02220217 58012
KIAH KIAH 020853Z 05003KT 10SM BKN160 BKN250 22/21 A3003 RMK AO2 SLP169 T02220211 58012
KLCH KLCH 020853Z AUTO 06003KT 10SM CLR 23/21 A3005 RMK AO2 SLP182 T02280211 56007
KMOB KMOB 020856Z AUTO 00000KT 10SM CLR 22/20 A3007 RMK AO2 SLP179 T02220200 58006
KMSY KMSY 020853Z 00000KT 10SM FEW150 BKN250 24/22 A3004 RMK AO2 SLP175 T02390217 56008
KSAT KSAT 020851Z 00000KT 10SM FEW100 21/20 A3006 RMK AO2 SLP160 T02110200 56009
KSGR KSGR 020853Z AUTO 00000KT 5SM BR CLR 22/22 A3003 RMK AO2 SLP170 T02220217 58010
KTME KTME 020855Z AUTO 00000KT 6SM BR CLR 22/22 A3005 RMK AO2